• Join FlightAware (Why Join?)
  • Login
  • US Flag 
12:59AM EDT


 

Airport Tracker/Info


-or-


 

Live Flight TrackerFlight Track Log ✈ SWA3232 ✈ 07-Jul-2013 ✈ KBOS - KBWI

Flight Track Log - Related Links

Times and Time Zones

All times are in EDT time to prevent confusion due to time zone crossing. See the SWA3232 flight status page for this flight to view local times or setup timezone preferences in your user account.

Time Position Orientation Groundspeed Altitude Reporting Facility
EDT Latitude Longitude Course Direction KTS MPH feet Rate Location/Type
07:01PM 42.3500 -71.0167 144° Southeast 159 183 800  Level KA90
07:02PM 42.3167 -70.9833 144° Southeast 222 255 2,700 1,980 Climbing KA90
07:03PM 42.3167 -70.8833 90° East 284 327 4,600 2,280 Climbing KA90
07:04PM 42.3322 -70.8000 76° East 294 338 7,000 2,880 Climbing Boston Center
07:05PM 42.2933 -70.6972 117° Southeast 314 361 10,100 2,760 Climbing Boston Center
07:06PM 42.2050 -70.6464 157° South 314 361 12,600 2,940 Climbing Boston Center
07:07PM 42.1047 -70.6322 174° South 332 382 16,000 3,240 Climbing Boston Center
07:08PM 41.9989 -70.6772 198° South 342 394 19,100 2,820 Climbing Boston Center
07:09PM 41.8956 -70.7219 198° South 370 426 21,700 2,220 Climbing Boston Center
07:10PM 41.8128 -70.7661 202° Southwest 390 449 23,600 2,100 Climbing Boston Center
07:11PM 41.6931 -70.8500 208° Southwest 400 460 26,000 1,920 Climbing Boston Center
07:12PM 41.6025 -70.9272 213° Southwest 423 487 27,500 1,560 Climbing Boston Center
07:13PM 41.5100 -71.0292 220° Southwest 435 501 29,200 1,200 Climbing Boston Center
07:14PM 41.4322 -71.1553 231° Southwest 435 501 30,000 360 Climbing Boston Center
07:15PM 41.3544 -71.2842 231° Southwest 445 512 30,000  Level Boston Center
07:16PM 41.2908 -71.3792 228° Southwest 445 512 30,000  Level Boston Center
07:17PM 41.2025 -71.5353 233° Southwest 445 512 30,000  Level Boston Center
07:18PM 41.1328 -71.6739 236° Southwest 435 501 30,000  Level Boston Center
07:19PM 41.0919 -71.7928 246° West 435 501 30,000  Level Boston Center
07:20PM 41.0197 -71.9586 240° Southwest 435 501 30,000  Level Boston Center
07:21PM 40.9347 -72.0719 225° Southwest 441 507 30,000  Level Boston Center
07:22PM 40.8475 -72.1878 223° Southwest 441 507 30,000  Level Boston Center
07:23PM 40.8270 -72.2056 223° Southwest  Level FlightAware Approximate
07:23PM 40.7436 -72.3194 224° Southwest 441 507 30,000  Level Boston Center
07:24PM 40.6542 -72.4292 223° Southwest 448 516 30,000  Level Boston Center
07:25PM 40.5664 -72.5411 224° Southwest 442 509 30,000  Level Boston Center
07:26PM 40.4789 -72.6528 224° Southwest 442 509 30,000  Level Boston Center
07:27PM 40.3869 -72.7642 223° Southwest 442 509 30,000  Level Boston Center
07:28PM 40.3031 -72.8756 225° Southwest 444 511 30,000  Level Boston Center
07:29PM 40.2111 -72.9808 221° Southwest 444 511 30,000  Level Boston Center
07:30PM 40.1333 -73.0833 225° Southwest 444 511 30,000  Level Boston Center
07:31PM 40.0494 -73.1936 225° Southwest 438 504 30,000  Level Boston Center
07:32PM 39.9989 -73.2517 221° Southwest 439 505 30,000  Level Washington Center
07:33PM 39.9136 -73.3597 224° Southwest 425 489 30,000  Level Washington Center
07:34PM 39.8467 -73.4672 231° Southwest 425 489 30,000  Level Washington Center
07:35PM 39.7758 -73.5908 233° Southwest 430 495 30,000  Level Washington Center
07:36PM 39.7050 -73.7117 233° Southwest 430 495 30,000  Level Washington Center
07:37PM 39.6339 -73.8375 234° Southwest 430 495 30,000 -240 Level Washington Center
07:38PM 39.5606 -73.9578 232° Southwest 430 495 29,600 -660 Descending Washington Center
07:39PM 39.4833 -74.0939 234° Southwest 430 495 28,800 -900 Descending Washington Center
07:40PM 39.4075 -74.2164 231° Southwest 435 501 27,800 -1,080 Descending Washington Center
07:41PM 39.3319 -74.3439 233° Southwest 446 513 26,700 -1,080 Descending Washington Center
07:42PM 39.2622 -74.4631 233° Southwest 440 506 25,700 -1,020 Descending Washington Center
07:43PM 39.1925 -74.5792 232° Southwest 427 491 24,700 -1,020 Descending Washington Center
07:44PM 39.1244 -74.6925 232° Southwest 415 478 23,700 -1,020 Descending Washington Center
07:45PM 39.0586 -74.8058 233° Southwest 410 472 22,700 -1,500 Descending Washington Center
07:46PM 38.9906 -74.9106 230° Southwest 404 465 20,800 -2,100 Descending Washington Center
07:47PM 38.9286 -75.0153 233° Southwest 388 447 18,500 -2,400 Descending Washington Center
07:48PM 38.8664 -75.1197 233° Southwest 377 434 16,100 -2,040 Descending Washington Center
07:49PM 38.8125 -75.2239 236° Southwest 370 426 14,400 -1,080 Descending Washington Center
07:50PM 38.8006 -75.3572 263° West 355 409 14,000 -240 Descending Washington Center
07:51PM 38.7922 -75.4772 265° West 349 402 14,000  Level Washington Center
07:52PM 38.7842 -75.6022 265° West 355 409 14,000  Level Washington Center
07:53PM 38.7778 -75.7328 266° West 360 414 14,000 -180 Level Washington Center
07:54PM 38.7692 -75.8578 265° West 360 414 13,700 -1,260 Descending Washington Center
07:55PM 38.7606 -75.9803 265° West 360 414 11,500 -1,440 Descending Washington Center
07:56PM 38.7539 -76.0947 266° West 344 396 10,900 -600 Descending Washington Center
07:57PM 38.7514 -76.1933 268° West 326 375 10,400 -1,020 Descending Washington Center
07:58PM 38.8031 -76.2708 311° West 281 323 8,900 -1,440 Descending Washington Center
07:59PM 38.8672 -76.3222 328° Northwest 270 311 7,600 -1,380 Descending Washington Center
08:00PM 38.9486 -76.3364 352° North 262 302 6,200 -1,260 Descending Washington Center
08:01PM 39.0278 -76.3506 352° North 268 308 5,100 -600 Descending Washington Center
08:02PM 39.0775 -76.3858 331° Northwest 260 299 5,000 -540 Descending Washington Center
08:03PM 39.0667 -76.4667 260° West 169 194 3,900 -960 Descending Potomac TRACON
08:04PM 39.0500 -76.5333 252° West 171 197 2,800 -960 Descending Potomac TRACON
08:05PM 39.0833 -76.5833 311° West 164 189 2,000 -720 Descending Potomac TRACON
08:06PM 39.1167 -76.6167 322° Northwest 152 175 1,400 -660 Descending Potomac TRACON
08:07PM 39.1500 -76.6500 322° Northwest 131 151 700 -720 Descending Potomac TRACON
08:09PM 39.1667 -76.6667 308° West  Level FlightAware Approximate
08:16PM 39.1754 -76.6683 308° West  Level Estimated
08:17PM 39.1754 -76.6683 308° West  Level Estimated
08:18PM 39.1754 -76.6683 308° West  Level Estimated
08:19PM 39.1754 -76.6683 308° West  Level Estimated